Time;durP1;ratioP1;P1;durP2;ratioP2;P2;SDS_P1;SDS_P2;PMS_P1;PMS_P2;Temp;Humidity;BMP_temperature;BMP_pressure;BME280_temperature;BME280_humidity;BME280_pressure;Samples;Min_cycle;Max_cycle;Signal;HPM_P1;HPM_P2
2023/10/06 00:00:42;;;;;;;;;;;;;;;17.65;36.93;100767.56;5074457;28;19944;-63
2023/10/06 00:03:11;;;;;;;;;;;;;;;17.62;36.78;100763.41;5074454;28;19999;-63
2023/10/06 00:05:37;;;;;;;;;;;;;;;17.61;37.04;100761.75;5074696;28;19916;-63
2023/10/06 00:08:07;;;;;;;;;;;;;;;17.59;37.10;100762.00;5074069;28;19913;-63
2023/10/06 00:10:33;;;;;;;;;;;;;;;17.59;37.19;100759.28;5074419;28;19916;-63
2023/10/06 00:12:59;;;;;;;;;;;;;;;17.61;37.38;100753.63;5074533;28;19916;-62
2023/10/06 00:15:28;;;;;;;;;;;;;;;17.62;36.87;100760.69;5074303;28;19920;-62
2023/10/06 00:18:00;;;;;;;;;;;;;;;17.60;37.00;100755.47;5074054;28;20368;-63
2023/10/06 00:20:33;;;;;;;;;;;;;;;17.59;36.98;100753.84;5074052;28;19913;-63
2023/10/06 00:23:04;;;;;;;;;;;;;;;17.59;37.68;100753.03;5056461;28;19974;-63
2023/10/06 00:25:31;;;;;;;;;;;;;;;17.58;37.50;100746.75;5046948;28;20011;-63
2023/10/06 00:28:00;;;;;;;;;;;;;;;17.60;37.75;100739.19;5073979;28;20329;-63
2023/10/06 00:30:25;;;;;;;;;;;;;;;17.65;37.44;100735.78;5073659;28;20349;-63
2023/10/06 00:32:51;;;;;;;;;;;;;;;17.68;37.48;100729.03;5074064;28;19999;-64
2023/10/06 00:35:22;;;;;;;;;;;;;;;17.72;37.57;100732.97;5074131;28;19924;-63
2023/10/06 00:37:50;;;;;;;;;;;;;;;17.76;37.60;100718.66;5074206;28;19912;-63
2023/10/06 00:40:24;;;;;;;;;;;;;;;17.80;37.42;100722.56;5073915;28;19919;-63
2023/10/06 00:42:51;;;;;;;;;;;;;;;17.84;37.21;100717.50;5073951;28;19991;-63
2023/10/06 00:45:16;;;;;;;;;;;;;;;17.88;37.05;100707.81;5073388;28;19919;-63
2023/10/06 00:47:41;;;;;;;;;;;;;;;17.93;37.25;100707.13;5073726;28;20003;-63
2023/10/06 00:50:07;;;;;;;;;;;;;;;17.98;37.10;100701.81;5073808;28;20300;-63
2023/10/06 00:52:34;;;;;;;;;;;;;;;17.98;37.23;100699.91;5073733;28;19912;-63
2023/10/06 00:55:02;;;;;;;;;;;;;;;18.02;36.90;100694.84;5075639;28;20395;-63
2023/10/06 00:57:28;;;;;;;;;;;;;;;17.99;36.91;100695.31;5094045;28;19919;-64
2023/10/06 00:59:55;;;;;;;;;;;;;;;17.99;37.11;100692.59;5078801;28;19913;-63
2023/10/06 01:02:20;;;;;;;;;;;;;;;18.01;37.40;100686.91;5063637;28;19959;-63
2023/10/06 01:04:46;;;;;;;;;;;;;;;18.02;36.92;100691.31;5053541;28;20397;-64
2023/10/06 01:07:16;;;;;;;;;;;;;;;18.04;37.27;100673.69;5053358;28;19990;-64
2023/10/06 01:09:59;;;;;;;;;;;;;;;18.06;37.03;100668.84;5061382;28;19924;-64
2023/10/06 01:12:26;;;;;;;;;;;;;;;18.07;37.14;100673.22;5073297;28;20370;-64
2023/10/06 01:15:05;;;;;;;;;;;;;;;18.11;37.10;100670.84;5073191;28;19972;-63
2023/10/06 01:17:30;;;;;;;;;;;;;;;18.12;37.25;100669.78;5073332;28;19919;-64
2023/10/06 01:19:59;;;;;;;;;;;;;;;18.10;37.05;100669.19;5073381;28;19912;-63
2023/10/06 01:22:25;;;;;;;;;;;;;;;18.09;37.68;100664.81;5073002;28;20377;-63
2023/10/06 01:24:53;;;;;;;;;;;;;;;18.09;37.01;100659.38;5088232;28;20025;-63
2023/10/06 01:27:19;;;;;;;;;;;;;;;18.08;37.32;100652.28;5093492;28;19966;-63
2023/10/06 01:29:45;;;;;;;;;;;;;;;18.07;37.61;100648.75;5093542;28;19916;-63
2023/10/06 01:32:10;;;;;;;;;;;;;;;18.10;37.41;100642.00;5093762;28;20420;-63
2023/10/06 01:34:39;;;;;;;;;;;;;;;18.07;37.66;100637.03;5093734;28;19954;-63
2023/10/06 01:37:07;;;;;;;;;;;;;;;18.08;37.32;100634.09;5075255;28;19916;-63
2023/10/06 01:39:35;;;;;;;;;;;;;;;18.13;37.05;100631.50;5093363;28;20372;-63
2023/10/06 01:42:07;;;;;;;;;;;;;;;18.15;37.19;100626.63;5083476;28;19920;-63
2023/10/06 01:44:34;;;;;;;;;;;;;;;18.19;37.34;100621.53;5073322;28;20030;-63
2023/10/06 01:47:00;;;;;;;;;;;;;;;18.18;37.34;100618.00;5073275;28;19913;-64
2023/10/06 01:49:25;;;;;;;;;;;;;;;18.19;37.66;100616.94;5073113;28;19923;-63
2023/10/06 01:51:51;;;;;;;;;;;;;;;18.21;37.18;100619.41;5073042;28;19939;-63
2023/10/06 01:54:17;;;;;;;;;;;;;;;18.24;37.70;100609.94;5072279;28;19943;-63
2023/10/06 01:56:44;;;;;;;;;;;;;;;18.26;37.37;100605.94;5087506;28;19919;-63
2023/10/06 01:59:10;;;;;;;;;;;;;;;18.30;37.41;100598.13;5093032;28;19913;-63
2023/10/06 02:01:38;;;;;;;;;;;;;;;18.30;37.50;100589.97;5089301;28;20285;-62
2023/10/06 02:04:07;;;;;;;;;;;;;;;18.30;37.05;100577.19;5073081;28;19932;-62
2023/10/06 02:06:33;;;;;;;;;;;;;;;18.31;37.21;100578.00;5072755;28;19916;-63
2023/10/06 02:08:59;;;;;;;;;;;;;;;18.34;37.30;100566.66;5072658;28;19927;-63
2023/10/06 02:11:35;;;;;;;;;;;;;;;18.33;37.44;100560.41;5073166;28;19917;-63
2023/10/06 02:14:00;;;;;;;;;;;;;;;18.35;37.20;100552.81;5072860;28;20289;-63
2023/10/06 02:16:29;;;;;;;;;;;;;;;18.37;37.29;100558.03;5080026;28;20330;-63
2023/10/06 02:18:54;;;;;;;;;;;;;;;18.38;37.37;100544.16;5077332;28;19913;-63
2023/10/06 02:21:24;;;;;;;;;;;;;;;18.40;37.30;100541.19;5076771;28;19919;-63
2023/10/06 02:23:51;;;;;;;;;;;;;;;18.42;37.12;100530.91;5064423;28;20329;-63
2023/10/06 02:26:16;;;;;;;;;;;;;;;18.46;37.21;100514.91;5096803;28;19935;-63
2023/10/06 02:28:48;;;;;;;;;;;;;;;18.48;36.96;100504.63;5096736;28;19916;-63
2023/10/06 02:31:13;;;;;;;;;;;;;;;18.50;37.01;100502.50;5096433;28;20371;-63
2023/10/06 02:33:39;;;;;;;;;;;;;;;18.50;37.08;100497.06;5096325;28;20083;-63
2023/10/06 02:36:17;;;;;;;;;;;;;;;18.52;37.48;100509.34;5096447;28;19916;-62
2023/10/06 02:38:48;;;;;;;;;;;;;;;18.55;37.22;100502.56;5083034;28;20257;-61
2023/10/06 02:41:18;;;;;;;;;;;;;;;18.55;37.52;100499.84;5076439;28;19919;-62
2023/10/06 02:43:45;;;;;;;;;;;;;;;18.55;37.60;100513.44;5076311;28;20369;-60
2023/10/06 02:46:12;;;;;;;;;;;;;;;18.55;37.58;100500.69;5075967;28;19989;-62
2023/10/06 02:48:37;;;;;;;;;;;;;;;18.58;37.63;100507.53;5076078;28;20315;-61
2023/10/06 02:51:06;;;;;;;;;;;;;;;18.63;37.60;100502.19;5076134;28;19913;-62
2023/10/06 02:53:35;;;;;;;;;;;;;;;18.65;37.61;100504.66;5075677;28;19920;-62
2023/10/06 02:56:08;;;;;;;;;;;;;;;18.65;37.63;100485.63;5075413;28;19919;-62
2023/10/06 02:58:34;;;;;;;;;;;;;;;18.68;37.58;100471.50;5075790;28;19919;-62
2023/10/06 03:01:04;;;;;;;;;;;;;;;18.68;37.88;100471.50;5058242;28;19919;-62
2023/10/06 03:03:33;;;;;;;;;;;;;;;18.69;37.55;100460.38;5075563;28;20007;-62
2023/10/06 03:05:58;;;;;;;;;;;;;;;18.69;37.61;100465.00;5075854;28;19948;-61
2023/10/06 03:08:27;;;;;;;;;;;;;;;18.72;37.56;100456.34;5075526;28;19966;-62
2023/10/06 03:10:53;;;;;;;;;;;;;;;18.75;37.37;100458.56;5076542;28;19962;-62
2023/10/06 03:13:43;;;;;;;;;;;;;;;18.77;37.43;100462.66;5077861;28;19916;-62
2023/10/06 03:16:11;;;;;;;;;;;;;;;18.80;37.60;100450.50;5080734;28;19999;-63
2023/10/06 03:18:36;;;;;;;;;;;;;;;18.81;37.89;100444.00;5096003;28;19912;-63
2023/10/06 03:21:13;;;;;;;;;;;;;;;18.83;37.77;100436.41;5095839;28;19919;-63
2023/10/06 03:23:38;;;;;;;;;;;;;;;18.85;37.74;100434.28;5090636;28;19916;-62
2023/10/06 03:26:09;;;;;;;;;;;;;;;18.88;38.06;100430.22;5075149;28;19981;-62
2023/10/06 03:28:38;;;;;;;;;;;;;;;18.89;37.75;100419.09;5074918;28;20484;-62
2023/10/06 03:33:44;;;;;;;;;;;;;;;18.85;38.29;100423.41;5075260;28;19916;-62
2023/10/06 03:36:09;;;;;;;;;;;;;;;18.82;38.13;100412.19;5075136;28;19981;-62
2023/10/06 03:38:43;;;;;;;;;;;;;;;18.82;37.88;100402.13;5074842;28;20437;-62
2023/10/06 03:41:24;;;;;;;;;;;;;;;18.84;38.29;100393.72;5074919;28;19920;-62
2023/10/06 03:43:55;;;;;;;;;;;;;;;18.85;37.82;100392.63;5074698;28;19944;-62
2023/10/06 03:46:24;;;;;;;;;;;;;;;18.86;38.10;100392.38;5075220;28;19919;-62
2023/10/06 03:48:50;;;;;;;;;;;;;;;18.87;38.08;100380.44;5074494;28;20430;-62
2023/10/06 03:51:19;;;;;;;;;;;;;;;18.87;38.36;100377.72;5074903;28;19920;-61
2023/10/06 03:53:45;;;;;;;;;;;;;;;18.87;38.40;100380.44;5074082;28;19912;-62
2023/10/06 03:56:12;;;;;;;;;;;;;;;18.88;38.59;100381.25;5074894;28;19940;-61
2023/10/06 03:58:38;;;;;;;;;;;;;;;18.87;38.64;100374.97;5074878;28;19934;-62
2023/10/06 04:01:08;;;;;;;;;;;;;;;18.89;38.70;100380.19;5074737;28;20003;-61
2023/10/06 04:03:33;;;;;;;;;;;;;;;18.91;38.65;100369.88;5074840;28;19935;-62
2023/10/06 04:05:59;;;;;;;;;;;;;;;18.91;38.58;100367.97;5074434;28;20281;-62
2023/10/06 04:08:24;;;;;;;;;;;;;;;18.91;39.31;100358.97;5074932;28;19920;-62
2023/10/06 04:10:57;;;;;;;;;;;;;;;18.83;39.32;100353.94;5074106;28;20008;-62
2023/10/06 04:13:23;;;;;;;;;;;;;;;18.79;39.66;100356.31;5074561;28;20003;-62
2023/10/06 04:15:54;;;;;;;;;;;;;;;18.73;39.63;100347.25;5075982;28;20381;-62
2023/10/06 04:18:23;;;;;;;;;;;;;;;18.68;39.78;100341.75;5094545;28;19952;-62
2023/10/06 04:20:49;;;;;;;;;;;;;;;18.71;39.77;100338.53;5094325;28;20002;-63
2023/10/06 04:23:17;;;;;;;;;;;;;;;18.75;39.81;100336.13;5092853;28;19912;-62
2023/10/06 04:25:42;;;;;;;;;;;;;;;18.72;40.22;100337.47;5073630;28;19916;-62
2023/10/06 04:28:08;;;;;;;;;;;;;;;18.74;39.86;100327.16;5073824;28;20250;-62
2023/10/06 04:30:35;;;;;;;;;;;;;;;18.73;40.22;100327.41;5074028;28;19923;-62
2023/10/06 04:33:01;;;;;;;;;;;;;;;18.71;40.33;100321.41;5074258;28;19912;-62
2023/10/06 04:35:26;;;;;;;;;;;;;;;18.69;40.58;100315.38;5074006;28;20327;-63
2023/10/06 04:37:53;;;;;;;;;;;;;;;18.70;40.28;100300.69;5074041;28;19916;-62
2023/10/06 04:40:20;;;;;;;;;;;;;;;18.69;40.61;100293.63;5073001;28;19920;-62
2023/10/06 04:42:46;;;;;;;;;;;;;;;18.68;40.68;100291.97;5073713;28;19912;-62
2023/10/06 04:45:14;;;;;;;;;;;;;;;18.64;40.69;100279.94;5073932;28;19917;-62
2023/10/06 04:47:41;;;;;;;;;;;;;;;18.63;41.13;100281.00;5073766;28;20385;-62
2023/10/06 04:50:10;;;;;;;;;;;;;;;18.60;40.77;100271.47;5073827;28;19923;-62
2023/10/06 04:52:36;;;;;;;;;;;;;;;18.61;41.21;100267.69;5073894;28;19920;-62
2023/10/06 04:55:03;;;;;;;;;;;;;;;18.66;40.84;100256.03;5072624;28;19999;-62
2023/10/06 04:57:28;;;;;;;;;;;;;;;18.66;40.55;100251.41;5055661;28;19916;-62
2023/10/06 04:59:54;;;;;;;;;;;;;;;18.68;40.68;100246.53;5073647;28;19913;-62
2023/10/06 05:02:21;;;;;;;;;;;;;;;18.68;41.03;100260.13;5073204;28;19958;-62
2023/10/06 05:04:47;;;;;;;;;;;;;;;18.68;41.13;100251.97;5073639;28;19977;-62
2023/10/06 05:07:12;;;;;;;;;;;;;;;18.66;40.99;100242.44;5073407;28;20349;-62
2023/10/06 05:09:40;;;;;;;;;;;;;;;18.66;41.51;100232.38;5072882;28;19943;-62
2023/10/06 05:12:07;;;;;;;;;;;;;;;18.66;41.67;100226.13;5072985;28;20413;-62
2023/10/06 05:14:34;;;;;;;;;;;;;;;18.68;41.60;100210.34;5073346;28;19962;-61
2023/10/06 05:16:59;;;;;;;;;;;;;;;18.68;41.33;100205.72;5085428;28;20266;-61
2023/10/06 05:19:26;;;;;;;;;;;;;;;18.68;41.69;100202.19;5093780;28;19919;-62
2023/10/06 05:21:52;;;;;;;;;;;;;;;18.67;41.75;100186.97;5093246;28;20260;-62
2023/10/06 05:24:18;;;;;;;;;;;;;;;18.65;41.77;100184.50;5083453;28;19935;-61
2023/10/06 05:26:43;;;;;;;;;;;;;;;18.67;41.79;100178.81;5073321;28;20376;-62
2023/10/06 05:29:11;;;;;;;;;;;;;;;18.71;41.42;100178.03;5073035;28;19913;-61
2023/10/06 05:31:36;;;;;;;;;;;;;;;18.71;41.66;100183.47;5073072;28;19919;-62
2023/10/06 05:34:04;;;;;;;;;;;;;;;18.68;41.92;100177.72;5073351;28;19916;-61
2023/10/06 05:36:29;;;;;;;;;;;;;;;18.69;41.91;100173.94;5073043;28;19925;-62
2023/10/06 05:38:55;;;;;;;;;;;;;;;18.66;42.03;100174.44;5073308;28;19912;-61
2023/10/06 05:41:21;;;;;;;;;;;;;;;18.66;42.19;100163.56;5073102;28;20376;-61
2023/10/06 05:43:48;;;;;;;;;;;;;;;18.69;42.00;100163.06;5073330;28;19920;-62
2023/10/06 05:46:14;;;;;;;;;;;;;;;18.66;42.43;100153.47;5073217;28;19997;-62
2023/10/06 05:48:39;;;;;;;;;;;;;;;18.65;42.29;100138.25;5073151;28;20329;-62
2023/10/06 05:51:05;;;;;;;;;;;;;;;18.62;42.35;100136.03;5073107;28;19931;-62
2023/10/06 05:53:38;;;;;;;;;;;;;;;18.64;42.09;100123.00;5076952;28;20269;-62
2023/10/06 05:56:06;;;;;;;;;;;;;;;18.62;42.28;100114.28;5058359;28;19996;-62
2023/10/06 05:58:34;;;;;;;;;;;;;;;18.57;42.50;100109.63;5076650;28;19913;-62
2023/10/06 06:01:34;;;;;;;;;;;;;;;18.56;42.88;100110.69;5076684;28;19916;-61
2023/10/06 06:03:51;;;;;;;;;;;;;;;18.59;42.53;100103.94;5071995;28;19952;-62
2023/10/06 06:06:22;;;;;;;;;;;;;;;18.59;43.26;100093.06;5076688;28;20068;-62
2023/10/06 06:08:47;;;;;;;;;;;;;;;18.61;43.32;100079.16;5076682;28;20311;-62
2023/10/06 06:11:13;;;;;;;;;;;;;;;18.59;43.19;100060.41;5076639;28;19924;-62
2023/10/06 06:13:38;;;;;;;;;;;;;;;18.62;43.38;100054.44;5076598;28;20284;-60
2023/10/06 06:16:05;;;;;;;;;;;;;;;18.69;42.79;100052.34;5080361;28;19919;-62
2023/10/06 06:18:33;;;;;;;;;;;;;;;18.62;42.88;100050.91;5097142;28;19948;-62
2023/10/06 06:20:58;;;;;;;;;;;;;;;18.61;42.96;100041.94;5097174;28;19922;-62
2023/10/06 06:23:24;;;;;;;;;;;;;;;18.61;42.98;100038.38;5088388;28;19912;-62
2023/10/06 06:25:49;;;;;;;;;;;;;;;18.57;43.09;100021.75;5096507;28;20352;-62
2023/10/06 06:28:16;;;;;;;;;;;;;;;18.45;43.45;100021.09;5096413;28;19912;-62
2023/10/06 06:30:42;;;;;;;;;;;;;;;18.46;42.70;100012.69;5096312;28;19916;-62
2023/10/06 06:33:08;;;;;;;;;;;;;;;18.43;43.14;100018.63;5096431;28;20353;-63
2023/10/06 06:35:35;;;;;;;;;;;;;;;18.43;43.07;100018.63;5096634;28;19955;-62
2023/10/06 06:38:01;;;;;;;;;;;;;;;18.42;43.34;100021.59;5076123;28;20382;-62
2023/10/06 06:40:30;;;;;;;;;;;;;;;18.38;43.02;100007.69;5058050;28;19912;-62
2023/10/06 06:42:55;;;;;;;;;;;;;;;18.37;43.06;99998.75;5076044;28;19919;-62
2023/10/06 06:45:21;;;;;;;;;;;;;;;18.28;43.19;99983.16;5075926;28;19916;-62
2023/10/06 06:47:46;;;;;;;;;;;;;;;18.26;44.04;99977.16;5075752;28;20016;-62
2023/10/06 06:50:13;;;;;;;;;;;;;;;18.24;43.21;99969.25;5076111;28;19970;-62
2023/10/06 06:52:39;;;;;;;;;;;;;;;18.32;43.17;99963.34;5075828;28;19916;-63
2023/10/06 06:55:12;;;;;;;;;;;;;;;18.33;43.39;99961.44;5075324;28;19999;-62
2023/10/06 06:57:38;;;;;;;;;;;;;;;18.34;43.44;99954.94;5075748;28;19936;-63
2023/10/06 07:00:09;;;;;;;;;;;;;;;18.35;43.56;99946.53;5075845;28;19963;-63
2023/10/06 07:02:34;;;;;;;;;;;;;;;18.37;43.46;99933.50;5063769;28;19916;-63
2023/10/06 07:05:00;;;;;;;;;;;;;;;18.37;43.41;99930.78;5054964;28;19913;-63
2023/10/06 07:07:26;;;;;;;;;;;;;;;18.37;43.36;99927.25;5037571;28;19920;-62
2023/10/06 07:09:52;;;;;;;;;;;;;;;18.40;43.18;99915.00;5055128;28;19924;-62
2023/10/06 07:12:18;;;;;;;;;;;;;;;18.40;43.19;99909.56;5069763;28;19939;-63
2023/10/06 07:14:43;;;;;;;;;;;;;;;18.38;43.44;99901.69;5075737;28;20276;-63
2023/10/06 07:17:09;;;;;;;;;;;;;;;18.35;43.62;99891.34;5070812;28;19916;-64
2023/10/06 07:19:35;;;;;;;;;;;;;;;18.39;43.53;99892.44;5085327;28;20505;-63
2023/10/06 07:22:00;;;;;;;;;;;;;;;18.37;43.86;99883.75;5075367;28;19936;-63
2023/10/06 07:24:26;;;;;;;;;;;;;;;18.36;43.75;99880.19;5086519;28;19912;-62
2023/10/06 07:26:52;;;;;;;;;;;;;;;18.45;43.33;99872.38;5087107;28;19921;-64
2023/10/06 07:29:18;;;;;;;;;;;;;;;18.46;43.83;99865.03;5074894;28;19920;-65
2023/10/06 07:31:43;;;;;;;;;;;;;;;18.46;43.75;99849.56;5075247;28;19912;-63
2023/10/06 07:34:08;;;;;;;;;;;;;;;18.51;43.90;99838.69;5074843;28;19919;-63
2023/10/06 07:36:37;;;;;;;;;;;;;;;18.53;43.76;99831.09;5075162;28;19934;-63
2023/10/06 07:39:08;;;;;;;;;;;;;;;18.52;43.64;99831.38;5074937;28;19916;-63
2023/10/06 07:41:33;;;;;;;;;;;;;;;18.50;44.14;99819.94;5075003;28;19958;-63
2023/10/06 07:43:59;;;;;;;;;;;;;;;18.52;43.94;99815.06;5074383;28;19916;-64
2023/10/06 07:46:24;;;;;;;;;;;;;;;18.53;44.16;99797.66;5074698;28;19917;-63
2023/10/06 07:48:50;;;;;;;;;;;;;;;18.57;43.85;99788.72;5074656;28;19958;-64
2023/10/06 07:51:19;;;;;;;;;;;;;;;18.56;43.89;99770.75;5074474;28;20314;-63
2023/10/06 07:53:45;;;;;;;;;;;;;;;18.61;43.78;99761.81;5073933;28;19958;-62
2023/10/06 07:56:11;;;;;;;;;;;;;;;18.61;44.22;99744.66;5087039;28;20319;-63
2023/10/06 07:58:38;;;;;;;;;;;;;;;18.62;44.19;99721.81;5094973;28;19912;-63
2023/10/06 08:01:10;;;;;;;;;;;;;;;18.63;44.21;99707.13;5095171;28;19919;-63
2023/10/06 08:03:39;;;;;;;;;;;;;;;18.70;44.04;99696.81;5054348;28;19913;-63
2023/10/06 08:06:05;;;;;;;;;;;;;;;18.71;44.18;99684.88;5054539;28;19916;-64
2023/10/06 08:08:32;;;;;;;;;;;;;;;18.71;44.37;99674.00;5056175;28;20046;-64
2023/10/06 08:10:57;;;;;;;;;;;;;;;18.74;44.19;99647.06;5054452;28;19916;-63
2023/10/06 08:13:23;;;;;;;;;;;;;;;18.79;43.90;99634.56;5054418;28;19919;-63
2023/10/06 08:15:48;;;;;;;;;;;;;;;18.80;44.08;99630.78;5064714;28;20317;-63
2023/10/06 08:18:15;;;;;;;;;;;;;;;18.83;44.31;99614.72;5094387;28;20352;-64
2023/10/06 08:20:40;;;;;;;;;;;;;;;18.86;44.10;99613.41;5094140;28;19982;-64
2023/10/06 08:23:07;;;;;;;;;;;;;;;18.89;44.15;99604.72;5094308;28;20376;-63
2023/10/06 08:25:32;;;;;;;;;;;;;;;18.90;44.40;99606.31;5074065;28;19926;-64
2023/10/06 08:27:58;;;;;;;;;;;;;;;18.93;44.17;99600.34;5073772;28;20011;-65
2023/10/06 08:30:23;;;;;;;;;;;;;;;18.96;44.02;99599.78;5055589;28;19917;-64
2023/10/06 08:32:51;;;;;;;;;;;;;;;19.01;43.94;99583.47;5053958;28;19913;-63
2023/10/06 08:35:17;;;;;;;;;;;;;;;19.03;44.14;99575.84;5053979;28;19996;-63
2023/10/06 08:37:43;;;;;;;;;;;;;;;19.09;44.17;99563.91;5054071;28;20424;-64
2023/10/06 08:40:09;;;;;;;;;;;;;;;19.14;44.21;99557.63;5065516;28;19916;-64
2023/10/06 08:42:34;;;;;;;;;;;;;;;19.21;44.18;99554.66;5073437;28;19919;-63
2023/10/06 08:45:00;;;;;;;;;;;;;;;19.25;44.15;99553.00;5073365;28;19912;-64
2023/10/06 08:47:26;;;;;;;;;;;;;;;19.31;43.94;99551.91;5073785;28;19920;-64
2023/10/06 08:49:53;;;;;;;;;;;;;;;19.36;43.78;99541.00;5073502;28;19926;-64
2023/10/06 08:52:22;;;;;;;;;;;;;;;19.40;44.02;99535.84;5073360;28;19923;-64
2023/10/06 08:54:47;;;;;;;;;;;;;;;19.43;43.91;99527.13;5072847;28;19916;-63
2023/10/06 08:57:13;;;;;;;;;;;;;;;19.49;43.97;99506.94;5073451;28;20446;-63
2023/10/06 08:59:39;;;;;;;;;;;;;;;19.56;44.03;99498.47;5073551;28;19913;-64
2023/10/06 09:02:04;;;;;;;;;;;;;;;19.61;43.84;99488.38;5073267;28;20396;-64
2023/10/06 09:04:35;;;;;;;;;;;;;;;19.63;43.84;99475.31;5055528;28;19957;-67
2023/10/06 09:07:15;;;;;;;;;;;;;;;19.69;43.93;99467.94;5072464;28;19967;-66
2023/10/06 09:09:41;;;;;;;;;;;;;;;19.70;43.84;99456.75;5072198;28;19924;-66
2023/10/06 09:12:09;;;;;;;;;;;;;;;19.75;43.70;99447.78;5072249;28;19922;-66
2023/10/06 09:14:48;;;;;;;;;;;;;;;19.79;44.25;99448.84;5073399;28;19917;-66
2023/10/06 09:17:13;;;;;;;;;;;;;;;19.80;43.56;99445.03;5086891;28;20393;-66
2023/10/06 09:19:48;;;;;;;;;;;;;;;19.81;43.96;99438.47;5093634;28;19913;-66
2023/10/06 09:22:14;;;;;;;;;;;;;;;19.82;43.72;99421.03;5093765;28;20218;-66
2023/10/06 09:24:39;;;;;;;;;;;;;;;19.77;43.48;99422.97;5078149;28;20011;-66
2023/10/06 09:27:21;;;;;;;;;;;;;;;19.65;43.78;99424.09;5054585;28;20293;-66
2023/10/06 09:29:46;;;;;;;;;;;;;;;19.53;44.14;99426.31;5057581;28;19923;-66
2023/10/06 09:32:21;;;;;;;;;;;;;;;19.63;43.69;99415.41;5057320;28;19917;-66
2023/10/06 09:34:47;;;;;;;;;;;;;;;19.66;43.85;99409.38;5057465;28;19956;-66
2023/10/06 09:37:21;;;;;;;;;;;;;;;19.68;43.54;99401.72;5075688;28;19927;-66
2023/10/06 09:39:57;;;;;;;;;;;;;;;19.68;43.77;99395.47;5077090;28;19913;-66
2023/10/06 09:42:26;;;;;;;;;;;;;;;19.66;43.75;99375.88;5077242;28;19916;-66
2023/10/06 09:44:59;;;;;;;;;;;;;;;19.63;43.63;99370.97;5077074;28;19912;-66
2023/10/06 09:47:25;;;;;;;;;;;;;;;19.70;43.67;99366.84;5077064;28;19912;-66
2023/10/06 09:49:51;;;;;;;;;;;;;;;19.73;43.94;99357.34;5077138;28;19916;-66
2023/10/06 09:52:19;;;;;;;;;;;;;;;19.74;43.76;99334.44;5076767;28;20016;-66
2023/10/06 09:54:45;;;;;;;;;;;;;;;19.77;44.00;99331.16;5076238;28;19963;-65
2023/10/06 09:57:10;;;;;;;;;;;;;;;19.81;43.94;99320.50;5074124;28;19912;-65
2023/10/06 09:59:38;;;;;;;;;;;;;;;19.81;43.97;99310.44;5056940;28;19966;-66
2023/10/06 10:02:04;;;;;;;;;;;;;;;19.83;44.10;99308.22;5056916;28;19913;-65
2023/10/06 10:04:30;;;;;;;;;;;;;;;19.90;43.92;99292.38;5057060;28;19959;-66
2023/10/06 10:06:56;;;;;;;;;;;;;;;19.91;44.10;99277.66;5056811;28;20341;-66
2023/10/06 10:09:22;;;;;;;;;;;;;;;19.90;44.10;99270.56;5074908;28;20265;-66
2023/10/06 10:12:00;;;;;;;;;;;;;;;19.88;44.25;99270.03;5076545;28;20346;-66
2023/10/06 10:14:29;;;;;;;;;;;;;;;19.82;44.13;99254.84;5076575;28;19913;-64
2023/10/06 10:17:02;;;;;;;;;;;;;;;19.88;43.92;99245.53;5087824;28;19965;-64
2023/10/06 10:19:27;;;;;;;;;;;;;;;19.92;44.16;99243.03;5096692;28;19912;-64
2023/10/06 10:21:58;;;;;;;;;;;;;;;19.95;43.86;99230.75;5086221;28;20190;-65
2023/10/06 10:24:25;;;;;;;;;;;;;;;19.95;43.99;99228.03;5087265;28;19919;-64
2023/10/06 10:26:50;;;;;;;;;;;;;;;19.99;44.00;99226.38;5096298;28;20357;-65
2023/10/06 10:29:18;;;;;;;;;;;;;;;19.96;43.90;99216.03;5096730;28;19919;-65
2023/10/06 10:31:50;;;;;;;;;;;;;;;19.98;43.78;99216.56;5074799;28;19942;-65
2023/10/06 10:34:20;;;;;;;;;;;;;;;19.91;43.98;99208.75;5074925;28;19916;-65
2023/10/06 10:36:47;;;;;;;;;;;;;;;19.91;44.31;99200.56;5075370;28;20269;-65
2023/10/06 10:39:39;;;;;;;;;;;;;;;19.95;44.19;99189.88;5075191;28;19920;-66
2023/10/06 10:42:18;;;;;;;;;;;;;;;19.98;44.31;99184.66;5076032;28;20416;-67
2023/10/06 10:44:52;;;;;;;;;;;;;;;20.08;44.02;99170.16;5075652;28;19912;-66
2023/10/06 10:47:31;;;;;;;;;;;;;;;20.11;43.63;99173.09;5076773;28;19992;-65
2023/10/06 10:50:13;;;;;;;;;;;;;;;20.12;43.93;99165.72;5057778;28;19924;-66
2023/10/06 10:52:43;;;;;;;;;;;;;;;20.21;43.62;99149.56;5057911;28;19994;-66
2023/10/06 10:55:26;;;;;;;;;;;;;;;20.23;43.95;99144.63;5060664;28;19923;-65
2023/10/06 11:01:23;;;;;;;;;;;;;;;20.37;43.73;99128.38;5076958;28;19918;-67
2023/10/06 11:07:11;;;;;;;;;;;;;;;20.36;43.64;99103.03;5075366;28;19913;-66
2023/10/06 11:09:46;;;;;;;;;;;;;;;20.40;43.91;99095.06;5057152;28;19916;-66
2023/10/06 11:12:25;;;;;;;;;;;;;;;20.43;43.51;99078.09;5075176;28;20358;-66
2023/10/06 11:15:15;;;;;;;;;;;;;;;20.46;43.80;99077.53;5075624;28;19973;-66
2023/10/06 11:18:04;;;;;;;;;;;;;;;20.56;43.86;99065.66;5066831;28;19920;-66
2023/10/06 11:20:41;;;;;;;;;;;;;;;20.54;43.42;99060.53;5066572;28;20015;-66
2023/10/06 11:23:29;;;;;;;;;;;;;;;20.58;43.70;99047.91;5057102;28;19913;-66
2023/10/06 11:26:12;;;;;;;;;;;;;;;20.75;43.16;99050.16;5095295;28;19920;-66
2023/10/06 11:28:42;;;;;;;;;;;;;;;20.69;43.41;99038.50;5085456;28;19916;-66
2023/10/06 11:31:28;;;;;;;;;;;;;;;20.69;43.06;99029.53;5074801;28;19916;-64
2023/10/06 11:33:55;;;;;;;;;;;;;;;20.70;43.33;99044.75;5075096;28;19963;-65
2023/10/06 11:36:21;;;;;;;;;;;;;;;20.78;42.82;99035.09;5075182;28;19912;-64
2023/10/06 11:38:46;;;;;;;;;;;;;;;20.85;43.16;99009.03;5074797;28;20361;-65
2023/10/06 11:41:11;;;;;;;;;;;;;;;21.05;42.83;99007.09;5074978;28;19924;-66
2023/10/06 11:43:37;;;;;;;;;;;;;;;21.06;43.30;99004.09;5074915;28;19920;-65
2023/10/06 11:46:02;;;;;;;;;;;;;;;21.14;43.17;98999.84;5074644;28;19916;-65
2023/10/06 11:48:34;;;;;;;;;;;;;;;21.21;43.12;98986.63;5074928;28;19913;-66
2023/10/06 11:51:07;;;;;;;;;;;;;;;21.42;43.17;98980.78;5074357;28;19920;-65
2023/10/06 11:53:39;;;;;;;;;;;;;;;21.50;42.89;98974.63;5074552;28;19912;-65
2023/10/06 11:56:12;;;;;;;;;;;;;;;21.53;43.05;98954.91;5067946;28;19918;-65
2023/10/06 11:58:39;;;;;;;;;;;;;;;21.63;43.01;98948.44;5094815;28;20430;-65
2023/10/06 12:01:05;;;;;;;;;;;;;;;21.63;42.83;98932.03;5064487;28;19913;-65
2023/10/06 12:03:38;;;;;;;;;;;;;;;21.61;43.17;98924.16;5055032;28;20340;-65
2023/10/06 12:06:03;;;;;;;;;;;;;;;21.73;42.63;98912.72;5054027;28;20274;-65
2023/10/06 12:08:28;;;;;;;;;;;;;;;21.77;42.79;98913.72;5054277;28;20003;-66
2023/10/06 12:11:03;;;;;;;;;;;;;;;21.86;42.80;98902.88;5054378;28;19924;-65
2023/10/06 12:13:28;;;;;;;;;;;;;;;21.98;42.41;98884.00;5056869;28;19919;-66
2023/10/06 12:15:57;;;;;;;;;;;;;;;22.05;43.12;98875.38;5077069;28;19913;-65
2023/10/06 12:18:22;;;;;;;;;;;;;;;22.02;42.96;98881.47;5094423;28;20389;-66
2023/10/06 12:20:48;;;;;;;;;;;;;;;21.92;43.31;98871.56;5094616;28;19920;-65
2023/10/06 12:23:13;;;;;;;;;;;;;;;22.01;43.43;98849.78;5093511;28;19919;-65
2023/10/06 12:25:39;;;;;;;;;;;;;;;22.10;42.86;98845.19;5075010;28;20552;-65
2023/10/06 12:28:04;;;;;;;;;;;;;;;22.10;43.07;98830.69;5074689;28;20289;-65
2023/10/06 12:30:30;;;;;;;;;;;;;;;22.10;42.80;98815.13;5074152;28;20018;-66
2023/10/06 12:32:55;;;;;;;;;;;;;;;22.14;43.05;98810.66;5073878;28;19912;-66
2023/10/06 12:35:21;;;;;;;;;;;;;;;22.12;43.06;98810.16;5055982;28;19963;-65
2023/10/06 12:37:47;;;;;;;;;;;;;;;22.17;43.15;98796.31;5073862;28;19952;-66
2023/10/06 12:40:14;;;;;;;;;;;;;;;22.15;42.87;98786.84;5074088;28;19922;-65
2023/10/06 12:42:40;;;;;;;;;;;;;;;22.22;43.30;98798.16;5073509;28;20010;-67
2023/10/06 12:45:07;;;;;;;;;;;;;;;22.36;43.29;98768.81;5073995;28;20018;-66
2023/10/06 12:47:32;;;;;;;;;;;;;;;22.58;43.58;98753.47;5073898;28;20278;-65
2023/10/06 12:50:04;;;;;;;;;;;;;;;22.65;42.67;98742.88;5073692;28;19943;-65
2023/10/06 12:52:31;;;;;;;;;;;;;;;22.78;42.10;98739.22;5073719;28;19924;-65
2023/10/06 12:54:56;;;;;;;;;;;;;;;23.03;42.28;98730.56;5075150;28;19935;-65